UKV1396 EGAC-EGNS
Flight info
| Callsign | UKV1396 |
|---|---|
| Flight time | 0h 17m |
| Altitude | 7000 |
| Route | DUFFY DCT RINGA L10 IOM |
| Aircraft | E75L/M-SDE3GILORVW/S |
Departure
| Time | 2026-04-28 08:56 |
|---|---|
| Airport | George Best Belfast City Airport (EGAC) |
Arrival
| Time | 2026-04-28 09:14 |
|---|---|
| Airport | Isle of Man Airport (EGNS) |
| Time | Latitude | Longitude | Altitude | Speed | Heading |
|---|---|---|---|---|---|
| 2026-04-28 08:43 | 54.61449 | -5.88380 | 22 ft | 0 kts | 268° |
| 2026-04-28 08:51 | 54.61450 | -5.88359 | 22 ft | 2 kts | 268° |
| 2026-04-28 08:52 | 54.61450 | -5.88327 | 22 ft | 3 kts | 268° |
| 2026-04-28 08:52 | 54.61451 | -5.88292 | 22 ft | 3 kts | 268° |
| 2026-04-28 08:52 | 54.61451 | -5.88257 | 22 ft | 3 kts | 268° |
| 2026-04-28 08:52 | 54.61451 | -5.88247 | 22 ft | 0 kts | 268° |
| 2026-04-28 08:53 | 54.61450 | -5.88259 | 22 ft | 6 kts | 253° |
| 2026-04-28 08:54 | 54.61376 | -5.88272 | 22 ft | 9 kts | 180° |
| 2026-04-28 08:54 | 54.61331 | -5.88253 | 22 ft | 8 kts | 121° |
| 2026-04-28 08:54 | 54.61295 | -5.88165 | 22 ft | 3 kts | 124° |
| 2026-04-28 08:54 | 54.61294 | -5.88160 | 22 ft | 0 kts | 124° |
| 2026-04-28 08:55 | 54.61293 | -5.88160 | 22 ft | 0 kts | 124° |
| 2026-04-28 08:55 | 54.61280 | -5.88127 | 22 ft | 7 kts | 124° |
| 2026-04-28 08:55 | 54.61242 | -5.88030 | 22 ft | 10 kts | 122° |
| 2026-04-28 08:56 | 54.61245 | -5.87942 | 22 ft | 6 kts | 48° |
| 2026-04-28 08:56 | 54.61310 | -5.87864 | 22 ft | 49 kts | 34° |
| 2026-04-28 08:56 | 54.61939 | -5.87114 | 110 ft | 157 kts | 35° |
| 2026-04-28 08:56 | 54.62804 | -5.86083 | 1072 ft | 150 kts | 36° |
| 2026-04-28 08:57 | 54.63780 | -5.84916 | 1593 ft | 188 kts | 36° |
| 2026-04-28 08:57 | 54.64813 | -5.83598 | 2073 ft | 185 kts | 42° |
| 2026-04-28 08:57 | 54.65433 | -5.81624 | 2577 ft | 194 kts | 75° |
| 2026-04-28 08:57 | 54.65347 | -5.79270 | 3102 ft | 202 kts | 105° |
| 2026-04-28 08:58 | 54.64558 | -5.77266 | 3615 ft | 208 kts | 135° |
| 2026-04-28 08:58 | 54.63252 | -5.76166 | 4127 ft | 215 kts | 163° |
| 2026-04-28 08:58 | 54.61754 | -5.76307 | 4638 ft | 221 kts | 192° |
| 2026-04-28 08:58 | 54.60425 | -5.77641 | 5171 ft | 224 kts | 216° |
| 2026-04-28 08:59 | 54.59272 | -5.79491 | 5635 ft | 230 kts | 224° |
| 2026-04-28 08:59 | 54.58112 | -5.81491 | 6155 ft | 240 kts | 223° |
| 2026-04-28 08:59 | 54.56873 | -5.83464 | 6661 ft | 250 kts | 219° |
| 2026-04-28 08:59 | 54.55398 | -5.85199 | 7174 ft | 254 kts | 207° |
| 2026-04-28 09:00 | 54.53723 | -5.86234 | 7669 ft | 258 kts | 189° |
| 2026-04-28 09:00 | 54.51960 | -5.86056 | 8178 ft | 260 kts | 165° |
| 2026-04-28 09:00 | 54.50344 | -5.84590 | 8700 ft | 263 kts | 140° |
| 2026-04-28 09:00 | 54.49082 | -5.82247 | 8940 ft | 271 kts | 127° |
| 2026-04-28 09:01 | 54.48050 | -5.79571 | 8990 ft | 271 kts | 121° |
| 2026-04-28 09:01 | 54.47112 | -5.76769 | 8999 ft | 269 kts | 118° |
| 2026-04-28 09:01 | 54.46203 | -5.73978 | 9000 ft | 268 kts | 119° |
| 2026-04-28 09:01 | 54.45589 | -5.72137 | 8999 ft | 267 kts | 119° |
| 2026-04-28 09:02 | 54.44310 | -5.68485 | 8999 ft | 266 kts | 121° |
| 2026-04-28 09:02 | 54.43317 | -5.65807 | 9000 ft | 266 kts | 122° |
| 2026-04-28 09:02 | 54.42298 | -5.63168 | 9000 ft | 266 kts | 123° |
| 2026-04-28 09:02 | 54.41255 | -5.60543 | 9000 ft | 266 kts | 124° |
| 2026-04-28 09:03 | 54.40560 | -5.58816 | 9000 ft | 265 kts | 124° |
| 2026-04-28 09:03 | 54.39504 | -5.56207 | 9000 ft | 265 kts | 124° |
| 2026-04-28 09:03 | 54.38454 | -5.53623 | 9000 ft | 265 kts | 124° |
| 2026-04-28 09:03 | 54.37047 | -5.50163 | 9000 ft | 265 kts | 124° |
| 2026-04-28 09:04 | 54.36338 | -5.48419 | 9000 ft | 265 kts | 124° |
| 2026-04-28 09:04 | 54.35275 | -5.45807 | 9001 ft | 265 kts | 124° |
| 2026-04-28 09:04 | 54.34217 | -5.43207 | 8999 ft | 265 kts | 124° |
| 2026-04-28 09:04 | 54.33162 | -5.40615 | 9000 ft | 265 kts | 124° |
| 2026-04-28 09:05 | 54.32107 | -5.38025 | 9001 ft | 265 kts | 124° |
| 2026-04-28 09:05 | 54.31050 | -5.35431 | 9001 ft | 265 kts | 124° |
| 2026-04-28 09:05 | 54.30001 | -5.32859 | 9001 ft | 265 kts | 124° |
| 2026-04-28 09:05 | 54.28939 | -5.30258 | 9000 ft | 265 kts | 124° |
| 2026-04-28 09:06 | 54.27882 | -5.27672 | 9001 ft | 265 kts | 124° |
| 2026-04-28 09:06 | 54.26824 | -5.25085 | 8999 ft | 265 kts | 124° |
| 2026-04-28 09:06 | 54.25768 | -5.22504 | 9000 ft | 265 kts | 124° |
| 2026-04-28 09:06 | 54.24701 | -5.19902 | 9000 ft | 265 kts | 124° |
| 2026-04-28 09:07 | 54.23647 | -5.17331 | 8999 ft | 265 kts | 124° |
| 2026-04-28 09:07 | 54.22584 | -5.14742 | 8999 ft | 264 kts | 124° |
| 2026-04-28 09:07 | 54.21535 | -5.12191 | 8609 ft | 258 kts | 124° |
| 2026-04-28 09:07 | 54.20522 | -5.09730 | 8106 ft | 249 kts | 124° |
| 2026-04-28 09:08 | 54.19544 | -5.07358 | 7604 ft | 242 kts | 124° |
| 2026-04-28 09:08 | 54.18604 | -5.05079 | 7135 ft | 229 kts | 124° |
| 2026-04-28 09:08 | 54.17706 | -5.02902 | 6632 ft | 220 kts | 124° |
| 2026-04-28 09:08 | 54.16837 | -5.00798 | 6129 ft | 213 kts | 124° |
| 2026-04-28 09:09 | 54.15991 | -4.98750 | 5623 ft | 207 kts | 124° |
| 2026-04-28 09:09 | 54.15178 | -4.96782 | 5126 ft | 203 kts | 124° |
| 2026-04-28 09:09 | 54.14362 | -4.94808 | 4621 ft | 200 kts | 124° |
| 2026-04-28 09:09 | 54.13579 | -4.92918 | 4145 ft | 192 kts | 124° |
| 2026-04-28 09:10 | 54.12816 | -4.91076 | 3653 ft | 187 kts | 124° |
| 2026-04-28 09:10 | 54.12084 | -4.89310 | 3233 ft | 180 kts | 124° |
| 2026-04-28 09:10 | 54.11372 | -4.87592 | 2880 ft | 172 kts | 124° |
| 2026-04-28 09:10 | 54.10724 | -4.86034 | 2978 ft | 158 kts | 124° |
| 2026-04-28 09:11 | 54.10078 | -4.84475 | 3009 ft | 164 kts | 124° |
| 2026-04-28 09:11 | 54.09418 | -4.82884 | 3004 ft | 165 kts | 124° |
| 2026-04-28 09:11 | 54.08751 | -4.81281 | 3003 ft | 167 kts | 124° |
| 2026-04-28 09:11 | 54.08081 | -4.79671 | 2990 ft | 168 kts | 124° |
| 2026-04-28 09:12 | 54.07398 | -4.78028 | 2626 ft | 165 kts | 124° |
| 2026-04-28 09:12 | 54.06997 | -4.76295 | 2372 ft | 156 kts | 97° |
| 2026-04-28 09:12 | 54.07054 | -4.74537 | 2312 ft | 142 kts | 83° |
| 2026-04-28 09:12 | 54.07200 | -4.72912 | 2034 ft | 140 kts | 82° |
| 2026-04-28 09:13 | 54.07362 | -4.71251 | 1692 ft | 143 kts | 81° |
| 2026-04-28 09:13 | 54.07516 | -4.69596 | 1414 ft | 141 kts | 81° |
| 2026-04-28 09:13 | 54.07683 | -4.67943 | 1081 ft | 143 kts | 81° |
| 2026-04-28 09:13 | 54.07864 | -4.66286 | 707 ft | 137 kts | 80° |
| 2026-04-28 09:14 | 54.08042 | -4.64777 | 309 ft | 124 kts | 78° |
| 2026-04-28 09:14 | 54.08203 | -4.63424 | 80 ft | 107 kts | 78° |
| 2026-04-28 09:14 | 54.08309 | -4.62587 | 62 ft | 32 kts | 77° |
| 2026-04-28 09:14 | 54.08350 | -4.62245 | 62 ft | 32 kts | 79° |
| 2026-04-28 09:15 | 54.08398 | -4.61829 | 62 ft | 39 kts | 78° |
| 2026-04-28 09:15 | 54.08452 | -4.61437 | 62 ft | 25 kts | 67° |
| 2026-04-28 09:15 | 54.08547 | -4.61416 | 62 ft | 12 kts | 302° |
| 2026-04-28 09:15 | 54.08566 | -4.61607 | 62 ft | 22 kts | 275° |
| 2026-04-28 09:16 | 54.08588 | -4.61904 | 62 ft | 28 kts | 278° |
| 2026-04-28 09:16 | 54.08610 | -4.62209 | 62 ft | 29 kts | 276° |
| 2026-04-28 09:16 | 54.08634 | -4.62583 | 62 ft | 32 kts | 276° |
| 2026-04-28 09:16 | 54.08650 | -4.62912 | 62 ft | 26 kts | 265° |
| 2026-04-28 09:17 | 54.08608 | -4.63118 | 62 ft | 6 kts | 250° |
| 2026-04-28 09:17 | 54.08615 | -4.63171 | 62 ft | 0 kts | 305° |